createdAt,value
2023-05-24T00:00:55.817Z,14.90
2023-05-24T00:03:24.134Z,14.80
2023-05-24T00:05:52.494Z,14.70
2023-05-24T00:08:21.942Z,14.70
2023-05-24T00:10:49.963Z,14.70
2023-05-24T00:13:17.990Z,14.70
2023-05-24T00:15:46.130Z,14.70
2023-05-24T00:18:14.111Z,14.80
2023-05-24T00:20:42.412Z,14.80
2023-05-24T00:23:10.870Z,14.80
2023-05-24T00:25:40.338Z,14.70
2023-05-24T00:28:08.343Z,14.70
2023-05-24T00:30:37.331Z,14.80
2023-05-24T00:33:05.596Z,14.70
2023-05-24T00:35:33.662Z,14.60
2023-05-24T00:38:01.819Z,14.60
2023-05-24T00:40:29.817Z,14.50
2023-05-24T00:43:00.514Z,14.60
2023-05-24T00:45:32.382Z,14.40
2023-05-24T00:48:03.640Z,14.60
2023-05-24T00:50:31.948Z,14.60
2023-05-24T00:53:05.216Z,14.50
2023-05-24T00:55:35.044Z,14.60
2023-05-24T00:58:04.488Z,14.50
2023-05-24T01:00:34.461Z,14.40
2023-05-24T01:03:02.695Z,14.30
2023-05-24T01:05:30.856Z,14.20
2023-05-24T01:08:11.790Z,14.40
2023-05-24T01:10:48.767Z,14.30
2023-05-24T01:13:28.356Z,14.20
2023-05-24T01:16:01.252Z,14.00
2023-05-24T01:18:34.482Z,14.20
2023-05-24T01:21:17.017Z,14.20
2023-05-24T01:23:55.956Z,14.10
2023-05-24T01:26:38.284Z,14.00
2023-05-24T01:29:08.632Z,14.00
2023-05-24T01:31:38.295Z,14.10
2023-05-24T01:34:06.373Z,14.00
2023-05-24T01:36:34.471Z,13.90
2023-05-24T01:39:02.648Z,13.90
2023-05-24T01:41:39.371Z,14.00
2023-05-24T01:44:21.204Z,14.00
2023-05-24T01:46:55.070Z,14.10
2023-05-24T01:49:27.444Z,14.10
2023-05-24T01:52:00.016Z,14.20
2023-05-24T01:54:31.841Z,14.20
2023-05-24T01:57:00.879Z,14.20
2023-05-24T01:59:33.011Z,14.10
2023-05-24T02:02:01.662Z,14.30
2023-05-24T02:04:29.858Z,14.10
2023-05-24T02:06:57.954Z,14.10
2023-05-24T02:09:26.036Z,14.00
2023-05-24T02:11:54.009Z,14.00
2023-05-24T02:14:22.071Z,14.00
2023-05-24T02:16:51.749Z,14.00
2023-05-24T02:19:19.818Z,14.10
2023-05-24T02:21:47.816Z,14.20
2023-05-24T02:24:16.543Z,14.00
2023-05-24T02:26:44.548Z,14.00
2023-05-24T02:29:12.616Z,14.10
2023-05-24T02:31:40.853Z,14.00
2023-05-24T02:34:10.504Z,14.00
2023-05-24T02:36:38.472Z,14.00
2023-05-24T02:39:06.542Z,14.10
2023-05-24T02:41:34.675Z,14.10
2023-05-24T02:44:02.759Z,14.10
2023-05-24T02:46:30.784Z,14.10
2023-05-24T02:48:58.849Z,14.10
2023-05-24T02:51:28.655Z,14.10
2023-05-24T02:53:56.680Z,14.00
2023-05-24T02:56:26.515Z,14.00
2023-05-24T02:58:55.635Z,13.90
2023-05-24T03:01:24.107Z,13.90
2023-05-24T03:03:52.114Z,13.80
2023-05-24T03:06:20.203Z,13.70
2023-05-24T03:08:50.097Z,13.70
2023-05-24T03:11:21.842Z,13.60
2023-05-24T03:13:50.071Z,13.80
2023-05-24T03:16:18.469Z,13.60
2023-05-24T03:18:46.625Z,13.60
2023-05-24T03:21:14.673Z,13.50
2023-05-24T03:23:42.777Z,13.60
2023-05-24T03:26:13.273Z,13.50
2023-05-24T03:28:41.978Z,13.40
2023-05-24T03:31:10.046Z,13.40
2023-05-24T03:33:38.088Z,13.40
2023-05-24T03:36:07.847Z,13.40
2023-05-24T03:38:35.894Z,13.50
2023-05-24T03:41:03.938Z,13.50
2023-05-24T03:43:33.276Z,13.40
2023-05-24T03:46:01.391Z,13.50
2023-05-24T03:48:29.461Z,13.40
2023-05-24T03:50:57.447Z,13.40
2023-05-24T03:53:25.471Z,13.50
2023-05-24T03:55:53.514Z,13.50
2023-05-24T03:58:21.736Z,13.50
2023-05-24T04:00:51.081Z,13.50
2023-05-24T04:03:20.133Z,13.50
2023-05-24T04:05:48.455Z,13.50
2023-05-24T04:08:16.577Z,13.40
2023-05-24T04:10:45.026Z,13.50
2023-05-24T04:13:13.203Z,13.50
2023-05-24T04:15:42.019Z,13.50
2023-05-24T04:18:12.088Z,13.50
2023-05-24T04:20:41.448Z,13.50
2023-05-24T04:23:09.768Z,13.60
2023-05-24T04:25:37.825Z,13.70
2023-05-24T04:28:06.185Z,13.60
2023-05-24T04:30:36.027Z,13.50
2023-05-24T04:33:04.711Z,13.50
2023-05-24T04:35:34.115Z,13.50
2023-05-24T04:38:02.135Z,13.50
2023-05-24T04:40:30.144Z,13.60
2023-05-24T04:42:58.524Z,13.40
2023-05-24T04:45:26.555Z,13.50
2023-05-24T04:47:54.579Z,13.50
2023-05-24T04:50:22.639Z,13.40
2023-05-24T04:52:52.111Z,13.50
2023-05-24T04:55:20.451Z,13.60
2023-05-24T04:57:48.499Z,13.60
2023-05-24T05:00:17.316Z,13.50
2023-05-24T05:02:45.508Z,13.50
2023-05-24T05:05:14.617Z,13.50
2023-05-24T05:07:42.612Z,13.50
2023-05-24T05:10:12.536Z,13.60
2023-05-24T05:12:40.569Z,13.60
2023-05-24T05:15:10.935Z,13.70
2023-05-24T05:17:39.008Z,13.70
2023-05-24T05:20:08.515Z,13.70
2023-05-24T05:22:36.927Z,13.70
2023-05-24T05:25:05.322Z,13.70
2023-05-24T05:27:34.832Z,13.70
2023-05-24T05:30:02.856Z,13.70
2023-05-24T05:32:30.869Z,13.60
2023-05-24T05:34:58.929Z,13.60
2023-05-24T05:37:26.882Z,13.50
2023-05-24T05:39:54.910Z,13.50
2023-05-24T05:42:22.954Z,13.60
2023-05-24T05:44:52.731Z,13.60
2023-05-24T05:47:20.924Z,13.60
2023-05-24T05:49:48.940Z,13.70
2023-05-24T05:52:16.878Z,13.70
2023-05-24T05:54:44.803Z,13.70
2023-05-24T05:57:12.879Z,13.70
2023-05-24T05:59:40.824Z,13.70
2023-05-24T06:02:10.523Z,13.70
2023-05-24T06:04:39.206Z,13.80
2023-05-24T06:07:07.250Z,13.80
2023-05-24T06:09:35.219Z,13.80
2023-05-24T06:12:03.397Z,13.80
2023-05-24T06:14:32.637Z,13.90
2023-05-24T06:17:00.723Z,13.70
2023-05-24T06:19:30.119Z,13.70
2023-05-24T06:21:58.126Z,13.70
2023-05-24T06:24:28.512Z,13.70
2023-05-24T06:26:56.851Z,13.70
2023-05-24T06:29:25.318Z,13.60
2023-05-24T06:31:53.540Z,13.60
2023-05-24T06:34:22.071Z,13.80
2023-05-24T06:36:52.968Z,13.90
2023-05-24T06:39:21.085Z,14.00
2023-05-24T06:41:51.272Z,14.00
2023-05-24T06:44:19.470Z,13.90
2023-05-24T06:46:47.968Z,14.00
2023-05-24T06:49:16.079Z,14.10
2023-05-24T06:51:44.544Z,14.20
2023-05-24T06:54:13.889Z,14.30
2023-05-24T06:56:41.879Z,14.40
2023-05-24T06:59:09.920Z,14.40
2023-05-24T07:01:39.765Z,14.40
2023-05-24T07:04:07.890Z,14.40
2023-05-24T07:06:37.576Z,14.40
2023-05-24T07:09:05.932Z,14.50
2023-05-24T07:11:35.360Z,14.50
2023-05-24T07:14:03.675Z,14.50
2023-05-24T07:16:32.009Z,14.60
2023-05-24T07:19:01.325Z,14.70
2023-05-24T07:21:31.835Z,14.60
2023-05-24T07:23:59.869Z,14.80
2023-05-24T07:26:28.074Z,14.50
2023-05-24T07:28:58.449Z,14.50
2023-05-24T07:31:27.581Z,14.50
2023-05-24T07:33:58.859Z,14.50
2023-05-24T07:36:27.083Z,14.70
2023-05-24T07:38:55.454Z,14.80
2023-05-24T07:41:27.496Z,14.90
2023-05-24T07:43:55.786Z,15.10
2023-05-24T07:46:25.344Z,15.10
2023-05-24T07:48:53.504Z,15.00
2023-05-24T07:51:22.654Z,15.00
2023-05-24T07:53:51.012Z,15.00
2023-05-24T07:56:20.030Z,15.00
2023-05-24T07:58:49.251Z,14.90
2023-05-24T08:01:18.481Z,14.90
2023-05-24T08:03:48.634Z,14.90
2023-05-24T08:06:16.813Z,14.90
2023-05-24T08:08:45.992Z,14.80
2023-05-24T08:11:13.964Z,14.80
2023-05-24T08:13:42.019Z,14.70
2023-05-24T08:16:10.046Z,14.60
2023-05-24T08:18:38.150Z,14.60
2023-05-24T08:21:07.950Z,14.50
2023-05-24T08:23:36.398Z,14.50
2023-05-24T08:26:04.574Z,14.50
2023-05-24T08:28:32.884Z,14.40
2023-05-24T08:31:00.949Z,14.40
2023-05-24T08:33:29.143Z,14.40
2023-05-24T08:35:57.174Z,14.40
2023-05-24T08:38:26.519Z,14.50
2023-05-24T08:40:54.554Z,14.50
2023-05-24T08:43:23.825Z,14.50
2023-05-24T08:45:54.128Z,14.50
2023-05-24T08:48:22.901Z,14.60
2023-05-24T08:50:51.653Z,14.60
2023-05-24T08:53:20.027Z,14.70
2023-05-24T08:55:53.224Z,14.80
2023-05-24T08:58:21.481Z,14.80
2023-05-24T09:00:49.704Z,14.90
2023-05-24T09:03:19.636Z,14.80
2023-05-24T09:05:47.845Z,14.90
2023-05-24T09:08:18.420Z,15.00
2023-05-24T09:10:54.602Z,15.10
2023-05-24T09:13:25.856Z,15.10
2023-05-24T09:15:54.170Z,15.20
2023-05-24T09:18:22.233Z,15.40
2023-05-24T09:20:50.422Z,15.50
2023-05-24T09:23:19.110Z,15.60
2023-05-24T09:25:48.836Z,15.70
2023-05-24T09:28:18.112Z,15.80
2023-05-24T09:31:00.098Z,15.90
2023-05-24T09:33:32.358Z,16.00
2023-05-24T09:36:01.665Z,16.30
2023-05-24T09:38:30.521Z,16.60
2023-05-24T09:41:03.638Z,16.60
2023-05-24T09:43:34.569Z,16.60
2023-05-24T09:46:05.980Z,16.60
2023-05-24T09:48:33.963Z,16.60
2023-05-24T09:51:06.301Z,16.70
2023-05-24T09:53:37.414Z,16.70
2023-05-24T09:56:07.130Z,16.70
2023-05-24T09:58:35.352Z,16.60
2023-05-24T10:01:08.854Z,16.60
2023-05-24T10:03:37.849Z,16.60
2023-05-24T10:06:07.800Z,16.40
2023-05-24T10:08:37.017Z,16.30
2023-05-24T10:11:05.806Z,16.10
2023-05-24T10:13:35.785Z,16.00
2023-05-24T10:16:04.418Z,16.00
2023-05-24T10:18:34.094Z,15.90
2023-05-24T10:21:03.160Z,15.80
2023-05-24T10:23:33.032Z,15.70
2023-05-24T10:26:07.229Z,15.60
2023-05-24T10:28:39.468Z,15.60
2023-05-24T10:31:12.482Z,15.60
2023-05-24T10:33:45.227Z,15.60
2023-05-24T10:36:16.004Z,15.60
2023-05-24T10:38:44.509Z,15.60
2023-05-24T10:41:14.057Z,15.60
2023-05-24T10:43:56.722Z,15.50
2023-05-24T10:46:34.990Z,15.50
2023-05-24T10:49:06.565Z,15.50
2023-05-24T10:51:38.191Z,15.40
2023-05-24T10:54:20.131Z,15.30
2023-05-24T10:56:50.476Z,15.30
2023-05-24T10:59:40.255Z,15.40
2023-05-24T11:02:13.750Z,15.50
2023-05-24T11:04:44.482Z,15.50
2023-05-24T11:07:15.259Z,15.50
2023-05-24T11:09:47.088Z,15.40
2023-05-24T11:12:20.748Z,15.40
2023-05-24T11:14:50.760Z,15.40
2023-05-24T11:17:20.382Z,15.40
2023-05-24T11:19:52.801Z,15.30
2023-05-24T11:22:22.386Z,15.40
2023-05-24T11:24:51.717Z,15.30
2023-05-24T11:27:19.822Z,15.30
2023-05-24T11:29:49.024Z,15.30
2023-05-24T11:32:18.846Z,15.20
2023-05-24T11:34:49.596Z,15.10
2023-05-24T11:37:18.782Z,15.20
2023-05-24T11:39:52.365Z,15.10
2023-05-24T11:42:22.288Z,15.10
2023-05-24T11:44:51.439Z,15.10
2023-05-24T11:47:22.461Z,15.10
2023-05-24T11:49:52.814Z,15.20
2023-05-24T11:52:22.100Z,15.00
2023-05-24T11:54:51.182Z,14.90
2023-05-24T11:57:22.685Z,15.00
2023-05-24T11:59:50.723Z,14.90
2023-05-24T12:02:19.603Z,14.90
2023-05-24T12:04:47.827Z,14.80
2023-05-24T12:07:17.853Z,14.80
2023-05-24T12:09:46.064Z,14.80
2023-05-24T12:12:14.071Z,14.90
2023-05-24T12:14:42.284Z,15.00
2023-05-24T12:17:17.018Z,15.00
2023-05-24T12:19:45.097Z,14.90
2023-05-24T12:22:13.029Z,14.90
2023-05-24T12:24:42.431Z,14.90
2023-05-24T12:27:10.460Z,15.00
2023-05-24T12:29:40.473Z,15.10
2023-05-24T12:32:13.124Z,15.10
2023-05-24T12:34:43.904Z,15.10
2023-05-24T12:37:13.682Z,15.20
2023-05-24T12:39:45.162Z,15.50
2023-05-24T12:42:14.313Z,15.50
2023-05-24T12:44:42.647Z,15.60
2023-05-24T12:47:11.753Z,15.80
2023-05-24T12:49:40.201Z,16.00
2023-05-24T12:52:08.190Z,16.30
2023-05-24T12:54:36.161Z,16.50
2023-05-24T12:57:06.290Z,16.60
2023-05-24T12:59:35.052Z,16.90
2023-05-24T13:02:03.229Z,17.00
2023-05-24T13:04:33.521Z,17.10
2023-05-24T13:07:02.884Z,17.10
2023-05-24T13:09:30.908Z,17.10
2023-05-24T13:11:58.941Z,17.20
2023-05-24T13:14:28.590Z,17.20
2023-05-24T13:16:56.634Z,17.40
2023-05-24T13:19:24.630Z,17.60
2023-05-24T13:21:52.688Z,17.70
2023-05-24T13:24:21.068Z,17.70
2023-05-24T13:26:50.535Z,17.60
2023-05-24T13:29:32.779Z,17.10
2023-05-24T13:32:04.138Z,16.40
2023-05-24T13:34:33.221Z,15.70
2023-05-24T13:37:01.639Z,15.60
2023-05-24T13:39:29.677Z,15.80
2023-05-24T13:41:57.723Z,16.10
2023-05-24T13:44:25.769Z,15.70
2023-05-24T13:46:54.341Z,15.90
2023-05-24T13:49:23.874Z,16.20
2023-05-24T13:51:55.608Z,16.10
2023-05-24T13:54:26.411Z,16.00
2023-05-24T13:56:57.358Z,15.90
2023-05-24T13:59:25.719Z,16.20
2023-05-24T14:01:53.715Z,16.50
2023-05-24T14:04:23.487Z,16.80
2023-05-24T14:06:51.448Z,17.00
2023-05-24T14:09:21.367Z,16.20
2023-05-24T14:11:49.496Z,15.50
2023-05-24T14:16:51.769Z,15.40
2023-05-24T14:19:19.929Z,15.80
2023-05-24T14:21:49.265Z,16.00
2023-05-24T14:24:17.291Z,16.20
2023-05-24T14:26:47.481Z,16.40
2023-05-24T14:29:15.524Z,16.40
2023-05-24T14:31:44.622Z,16.60
2023-05-24T14:34:13.102Z,16.80
2023-05-24T14:36:41.756Z,16.50
2023-05-24T14:39:11.228Z,16.30
2023-05-24T14:41:39.200Z,16.40
2023-05-24T14:44:07.393Z,16.40
2023-05-24T14:46:35.995Z,16.70
2023-05-24T14:49:04.745Z,16.80
2023-05-24T14:51:32.762Z,16.90
2023-05-24T14:54:00.761Z,16.80
2023-05-24T14:56:30.063Z,16.90
2023-05-24T14:58:58.652Z,17.10
2023-05-24T15:01:26.785Z,17.40
2023-05-24T15:03:54.924Z,17.30
2023-05-24T15:06:23.116Z,17.50
2023-05-24T15:08:51.942Z,17.50
2023-05-24T15:11:19.875Z,17.40
2023-05-24T15:13:49.414Z,17.20
2023-05-24T15:16:17.515Z,17.30
2023-05-24T15:18:45.512Z,17.30
2023-05-24T15:21:13.524Z,17.30
2023-05-24T15:23:41.600Z,17.30
2023-05-24T15:26:09.545Z,17.40
2023-05-24T15:28:37.564Z,17.30
2023-05-24T15:31:07.155Z,17.40
2023-05-24T15:33:36.420Z,17.40
2023-05-24T15:36:04.612Z,17.40
2023-05-24T15:38:32.680Z,17.30
2023-05-24T15:41:00.833Z,17.30
2023-05-24T15:43:30.712Z,17.30
2023-05-24T15:45:58.688Z,17.20
2023-05-24T15:48:28.390Z,17.00
2023-05-24T15:51:25.503Z,16.90
2023-05-24T15:53:44.572Z,16.70
2023-05-24T15:56:12.754Z,16.90
2023-05-24T15:58:40.820Z,16.90
2023-05-24T16:01:09.020Z,17.00
2023-05-24T16:03:38.667Z,17.00
2023-05-24T16:06:07.757Z,17.00
2023-05-24T16:08:35.765Z,16.90
2023-05-24T16:11:09.882Z,16.80
2023-05-24T16:13:37.853Z,16.70
2023-05-24T16:16:06.269Z,16.80
2023-05-24T16:18:35.497Z,16.80
2023-05-24T16:21:05.270Z,17.00
2023-05-24T16:23:33.263Z,16.90
2023-05-24T16:26:01.343Z,16.90
2023-05-24T16:28:29.409Z,16.80
2023-05-24T16:30:58.674Z,16.70
2023-05-24T16:33:26.657Z,16.70
2023-05-24T16:35:58.154Z,16.60
2023-05-24T16:38:28.603Z,16.70
2023-05-24T16:40:56.561Z,16.70
2023-05-24T16:43:24.669Z,16.60
2023-05-24T16:45:53.038Z,16.50
2023-05-24T16:48:23.216Z,16.50
2023-05-24T16:50:53.886Z,16.60
2023-05-24T16:53:23.146Z,16.60
2023-05-24T16:55:55.991Z,16.70
2023-05-24T16:58:25.271Z,16.70
2023-05-24T17:00:54.540Z,16.70
2023-05-24T17:03:28.098Z,16.60
2023-05-24T17:06:01.905Z,16.60
2023-05-24T17:08:32.527Z,16.70
2023-05-24T17:11:01.802Z,16.60
2023-05-24T17:13:29.768Z,16.50
2023-05-24T17:16:00.047Z,16.40
2023-05-24T17:18:31.171Z,16.40
2023-05-24T17:21:01.308Z,16.40
2023-05-24T17:23:32.218Z,16.30
2023-05-24T17:26:02.682Z,16.30
2023-05-24T17:28:31.174Z,16.10
2023-05-24T17:31:00.972Z,16.10
2023-05-24T17:33:30.633Z,16.10
2023-05-24T17:36:00.921Z,16.00
2023-05-24T17:38:29.342Z,16.00
2023-05-24T17:40:59.327Z,16.00
2023-05-24T17:43:32.093Z,16.20
2023-05-24T17:46:06.048Z,16.10
2023-05-24T17:48:35.738Z,16.00
2023-05-24T17:51:06.227Z,16.00
2023-05-24T17:53:35.295Z,15.90
2023-05-24T17:56:04.166Z,15.80
2023-05-24T17:58:36.658Z,15.80
2023-05-24T18:01:06.169Z,15.70
2023-05-24T18:03:34.403Z,15.70
2023-05-24T18:06:03.968Z,15.70
2023-05-24T18:08:32.474Z,15.70
2023-05-24T18:11:03.588Z,15.80
2023-05-24T18:13:32.980Z,15.60
2023-05-24T18:16:01.817Z,15.50
2023-05-24T18:18:30.323Z,15.50
2023-05-24T18:20:58.394Z,15.50
2023-05-24T18:23:26.656Z,15.40
2023-05-24T18:26:00.255Z,15.40
2023-05-24T18:28:29.898Z,15.40
2023-05-24T18:30:59.269Z,15.30
2023-05-24T18:33:27.294Z,15.30
2023-05-24T18:35:55.335Z,15.30
2023-05-24T18:38:23.361Z,15.20
2023-05-24T18:40:51.366Z,15.10
2023-05-24T18:43:19.346Z,15.10
2023-05-24T18:45:47.358Z,15.10
2023-05-24T18:48:16.791Z,15.00
2023-05-24T18:50:44.921Z,15.00
2023-05-24T18:53:12.904Z,14.90
2023-05-24T18:55:41.044Z,14.90
2023-05-24T18:58:09.148Z,14.90
2023-05-24T19:00:40.330Z,14.70
2023-05-24T19:03:10.975Z,14.70
2023-05-24T19:05:43.631Z,14.60
2023-05-24T19:08:15.469Z,14.50
2023-05-24T19:10:43.652Z,14.40
2023-05-24T19:13:11.780Z,14.40
2023-05-24T19:15:39.755Z,14.40
2023-05-24T19:18:08.369Z,14.30
2023-05-24T19:20:36.651Z,14.30
2023-05-24T19:23:06.538Z,14.10
2023-05-24T19:25:41.743Z,14.10
2023-05-24T19:28:11.331Z,14.00
2023-05-24T19:30:39.630Z,14.00
2023-05-24T19:33:07.805Z,14.00
2023-05-24T19:35:36.665Z,13.90
2023-05-24T19:38:06.249Z,13.90
2023-05-24T19:40:34.239Z,13.80
2023-05-24T19:43:02.436Z,13.80
2023-05-24T19:45:30.692Z,13.70
2023-05-24T19:47:58.942Z,13.60
2023-05-24T19:50:29.036Z,13.60
2023-05-24T19:52:58.558Z,13.50
2023-05-24T19:55:27.903Z,13.50
2023-05-24T19:57:56.220Z,13.50
2023-05-24T20:00:24.251Z,13.30
2023-05-24T20:02:52.363Z,13.30
2023-05-24T20:05:21.017Z,13.20
2023-05-24T20:07:49.228Z,13.20
2023-05-24T20:10:17.455Z,13.20
2023-05-24T20:12:47.034Z,13.20
2023-05-24T20:15:17.754Z,13.20
2023-05-24T20:17:46.712Z,13.30
2023-05-24T20:20:14.888Z,13.10
2023-05-24T20:22:43.007Z,13.10
2023-05-24T20:25:12.716Z,13.00
2023-05-24T20:27:42.596Z,12.90
2023-05-24T20:30:13.312Z,13.00
2023-05-24T20:32:41.582Z,12.80
2023-05-24T20:35:10.645Z,12.80
2023-05-24T20:37:38.666Z,12.70
2023-05-24T20:40:08.043Z,12.80
2023-05-24T20:42:36.053Z,12.70
2023-05-24T20:45:04.612Z,12.70
2023-05-24T20:47:34.103Z,12.70
2023-05-24T20:50:02.200Z,12.70
2023-05-24T20:52:30.255Z,12.70
2023-05-24T20:54:58.299Z,12.60
2023-05-24T20:57:26.484Z,12.60
2023-05-24T20:59:54.541Z,12.60
2023-05-24T21:02:22.913Z,12.60
2023-05-24T21:04:52.445Z,12.60
2023-05-24T21:07:20.361Z,12.50
2023-05-24T21:09:48.336Z,12.50
2023-05-24T21:12:16.361Z,12.60
2023-05-24T21:14:44.795Z,12.50
2023-05-24T21:17:13.170Z,12.50
2023-05-24T21:19:41.269Z,12.50
2023-05-24T21:22:10.599Z,12.50
2023-05-24T21:24:38.513Z,12.40
2023-05-24T21:27:06.620Z,12.50
2023-05-24T21:29:37.862Z,12.40
2023-05-24T21:32:06.136Z,12.30
2023-05-24T21:34:34.097Z,12.30
2023-05-24T21:37:02.169Z,12.30
2023-05-24T21:39:31.547Z,12.30
2023-05-24T21:41:59.486Z,12.40
2023-05-24T21:44:27.467Z,12.30
2023-05-24T21:46:55.815Z,12.30
2023-05-24T21:49:24.084Z,12.30
2023-05-24T21:51:52.054Z,12.30
2023-05-24T21:54:20.743Z,12.20
2023-05-24T21:56:50.042Z,12.30
2023-05-24T21:59:17.976Z,12.30
2023-05-24T22:01:46.012Z,12.30
2023-05-24T22:04:14.158Z,12.30
2023-05-24T22:06:42.718Z,12.30
2023-05-24T22:09:10.969Z,12.30
2023-05-24T22:11:40.892Z,12.30
2023-05-24T22:14:10.881Z,12.40
2023-05-24T22:16:39.000Z,12.50
2023-05-24T22:19:14.373Z,12.50
2023-05-24T22:21:42.989Z,12.30
2023-05-24T22:24:11.243Z,12.30
2023-05-24T22:26:41.541Z,12.30
2023-05-24T22:29:10.983Z,12.30
2023-05-24T22:31:39.374Z,12.20
2023-05-24T22:34:07.528Z,12.20
2023-05-24T22:36:37.799Z,12.20
2023-05-24T22:39:06.513Z,12.20
2023-05-24T22:41:34.670Z,12.10
2023-05-24T22:44:02.679Z,12.00
2023-05-24T22:46:32.067Z,11.90
2023-05-24T22:49:03.085Z,11.90
2023-05-24T22:51:31.200Z,12.00
2023-05-24T22:53:59.163Z,12.00
2023-05-24T22:56:27.999Z,11.90
2023-05-24T22:58:56.615Z,11.90
2023-05-24T23:01:24.924Z,11.80
2023-05-24T23:03:56.487Z,11.70
2023-05-24T23:06:32.018Z,11.80
2023-05-24T23:09:02.212Z,11.70
2023-05-24T23:11:32.303Z,11.90
2023-05-24T23:14:00.636Z,12.00
2023-05-24T23:16:33.507Z,11.90
2023-05-24T23:19:04.832Z,11.90
2023-05-24T23:21:33.743Z,11.80
2023-05-24T23:24:03.826Z,11.80
2023-05-24T23:26:32.123Z,11.70
2023-05-24T23:29:00.176Z,11.80
2023-05-24T23:31:28.278Z,11.70
2023-05-24T23:33:56.270Z,11.70
2023-05-24T23:36:25.553Z,11.70
2023-05-24T23:38:53.750Z,11.70
2023-05-24T23:41:21.916Z,11.70
2023-05-24T23:43:49.917Z,11.60
2023-05-24T23:46:17.947Z,11.60
2023-05-24T23:48:46.139Z,11.60
2023-05-24T23:51:14.253Z,11.70
2023-05-24T23:53:43.762Z,11.50
2023-05-24T23:56:11.758Z,11.50
2023-05-24T23:58:39.812Z,11.40
